Terminal Aerodrome Forecast
Issued by NWS

Home | Current Version | Previous Version | Graphics & Text | Print | Product List | Glossary On
Versions: 1 2 3 4 5 6 7 8 9 10 11 12 13 14 15 16 17 18 19 20 21 22 23 24 25 26 27 28
000
FTUS43 KABR 240822 AAB
TAFPIR
TAF AMD
KPIR 240822Z 2408/2506 33015G23KT P6SM VCSH BKN080 OVC120
      TEMPO 2408/2410 -SHRA OVC080
     FM241000 12011KT P6SM BKN100 OVC200
     FM241400 30017G24KT P6SM BKN150
     FM250300 02009KT P6SM BKN150=

USA.gov is the U.S. government's official web portal to all federal, state and local government web resources and services.